Yocum Creek, Kentucky
Current Conditions -  °F | °C
As of 6:15 PM on Monday 22 Dec 2014 (Local Time) from KI35 Reporting Station
Overcast Overcast  
Wind Chill: 55°   Ceiling: 6000
Heat Index: 55°   Visibility: 10mi
Dew Point: 41°   Wind: 3mph
Humidity: 58%   Direction: 140°SE
Pressure: 29.84"   Gusts: NA
Location:  36.8509°N, 83.1611°W
Report Text: KI35 222315Z AUTO 14003KT 10SM OVC060 13/05 A2984 RMK AO1
Loading
Personal Weather Stations






























Interactive Weather Map New forecast layout! Learn more

10-Day Weather Forecast

Advertisements
Track Severe Weather on mobile